createdAt,value
2022-12-14T00:02:03.027Z,-8.40
2022-12-14T00:04:32.831Z,-8.40
2022-12-14T00:07:01.147Z,-8.40
2022-12-14T00:09:29.659Z,-8.40
2022-12-14T00:11:59.246Z,-8.40
2022-12-14T00:14:27.752Z,-8.40
2022-12-14T00:16:56.093Z,-8.40
2022-12-14T00:19:24.266Z,-8.40
2022-12-14T00:21:53.874Z,-8.40
2022-12-14T00:24:23.657Z,-8.30
2022-12-14T00:26:51.962Z,-8.30
2022-12-14T00:29:20.162Z,-8.30
2022-12-14T00:31:48.960Z,-8.20
2022-12-14T00:34:17.371Z,-8.30
2022-12-14T00:36:45.524Z,-8.20
2022-12-14T00:39:15.158Z,-8.20
2022-12-14T00:41:43.334Z,-8.10
2022-12-14T00:44:11.568Z,-8.10
2022-12-14T00:46:40.647Z,-8.10
2022-12-14T00:49:09.182Z,-8.10
2022-12-14T00:51:37.308Z,-8.00
2022-12-14T00:54:05.527Z,-8.00
2022-12-14T00:56:35.437Z,-8.00
2022-12-14T00:59:04.077Z,-8.00
2022-12-14T01:01:32.355Z,-7.90
2022-12-14T01:04:14.783Z,-7.90
2022-12-14T01:06:43.361Z,-7.90
2022-12-14T01:09:11.802Z,-7.80
2022-12-14T01:11:41.738Z,-7.80
2022-12-14T01:14:13.305Z,-7.80
2022-12-14T01:16:41.831Z,-7.80
2022-12-14T01:19:12.072Z,-7.70
2022-12-14T01:21:40.595Z,-7.70
2022-12-14T01:24:09.787Z,-7.70
2022-12-14T01:26:41.359Z,-7.70
2022-12-14T01:29:09.931Z,-7.60
2022-12-14T01:31:39.164Z,-7.60
2022-12-14T01:34:08.355Z,-7.50
2022-12-14T01:36:37.579Z,-7.50
2022-12-14T01:39:09.658Z,-7.40
2022-12-14T01:41:41.032Z,-7.30
2022-12-14T01:44:43.789Z,-7.30
2022-12-14T01:47:19.468Z,-7.30
2022-12-14T01:49:51.492Z,-7.30
2022-12-14T01:52:23.763Z,-7.20
2022-12-14T01:54:57.079Z,-7.20
2022-12-14T01:57:30.488Z,-7.20
2022-12-14T02:00:03.777Z,-7.20
2022-12-14T02:02:36.494Z,-7.20
2022-12-14T02:05:09.428Z,-7.20
2022-12-14T02:07:38.723Z,-7.10
2022-12-14T02:10:08.341Z,-7.10
2022-12-14T02:12:42.976Z,-7.20
2022-12-14T02:15:13.596Z,-7.20
2022-12-14T02:17:45.081Z,-7.10
2022-12-14T02:20:14.416Z,-7.10
2022-12-14T02:23:18.642Z,-7.10
2022-12-14T02:26:19.199Z,-7.10
2022-12-14T02:29:15.989Z,-7.10
2022-12-14T02:31:54.864Z,-7.00
2022-12-14T02:34:32.476Z,-7.10
2022-12-14T02:37:05.245Z,-7.00
2022-12-14T02:39:41.589Z,-6.90
2022-12-14T02:42:14.830Z,-7.00
2022-12-14T02:44:53.818Z,-6.90
2022-12-14T02:47:28.155Z,-6.90
2022-12-14T02:50:04.702Z,-6.90
2022-12-14T02:52:41.714Z,-6.80
2022-12-14T02:55:17.256Z,-6.80
2022-12-14T02:57:49.586Z,-6.70
2022-12-14T03:00:20.852Z,-6.70
2022-12-14T03:02:50.264Z,-6.70
2022-12-14T03:05:18.947Z,-6.60
2022-12-14T03:07:50.854Z,-6.60
2022-12-14T03:10:26.818Z,-6.60
2022-12-14T03:13:01.714Z,-6.50
2022-12-14T03:15:32.432Z,-6.40
2022-12-14T03:18:03.593Z,-6.40
2022-12-14T03:20:35.138Z,-6.40
2022-12-14T03:23:08.270Z,-6.40
2022-12-14T03:25:42.132Z,-6.40
2022-12-14T03:28:16.156Z,-6.40
2022-12-14T03:31:00.584Z,-6.30
2022-12-14T03:33:31.548Z,-6.30
2022-12-14T03:36:06.726Z,-6.30
2022-12-14T03:38:41.458Z,-6.30
2022-12-14T03:41:18.202Z,-6.30
2022-12-14T03:44:01.211Z,-6.30
2022-12-14T03:46:41.637Z,-6.40
2022-12-14T03:49:20.363Z,-6.30
2022-12-14T03:51:57.485Z,-6.30
2022-12-14T03:54:34.420Z,-6.30
2022-12-14T03:57:08.784Z,-6.30
2022-12-14T03:59:41.339Z,-6.20
2022-12-14T04:02:17.403Z,-6.20
2022-12-14T04:04:50.304Z,-6.20
2022-12-14T04:07:24.580Z,-6.20
2022-12-14T04:09:57.281Z,-6.20
2022-12-14T04:12:51.675Z,-6.10
2022-12-14T04:15:40.602Z,-6.10
2022-12-14T04:18:34.551Z,-6.00
2022-12-14T04:21:11.835Z,-6.00
2022-12-14T04:24:01.381Z,-6.00
2022-12-14T04:26:35.167Z,-6.00
2022-12-14T04:29:25.048Z,-6.00
2022-12-14T04:31:59.808Z,-6.00
2022-12-14T04:34:31.948Z,-5.90
2022-12-14T04:37:06.493Z,-5.90
2022-12-14T04:39:43.888Z,-5.90
2022-12-14T04:42:14.121Z,-5.80
2022-12-14T04:44:45.721Z,-5.90
2022-12-14T04:47:17.389Z,-5.90
2022-12-14T04:49:53.305Z,-5.80
2022-12-14T04:52:25.719Z,-5.70
2022-12-14T04:55:00.679Z,-5.60
2022-12-14T04:57:37.880Z,-5.50
2022-12-14T05:00:07.179Z,-5.50
2022-12-14T05:02:49.555Z,-5.50
2022-12-14T05:05:26.649Z,-5.50
2022-12-14T05:08:04.737Z,-5.50
2022-12-14T05:10:38.629Z,-5.50
2022-12-14T05:13:10.708Z,-5.40
2022-12-14T05:15:44.207Z,-5.40
2022-12-14T05:18:12.591Z,-5.30
2022-12-14T05:20:42.334Z,-5.30
2022-12-14T05:23:10.696Z,-5.30
2022-12-14T05:25:39.518Z,-5.30
2022-12-14T05:28:08.442Z,-5.20
2022-12-14T05:30:37.813Z,-5.10
2022-12-14T05:33:06.225Z,-5.10
2022-12-14T05:35:34.532Z,-5.10
2022-12-14T05:38:04.444Z,-5.10
2022-12-14T05:40:33.544Z,-5.00
2022-12-14T05:43:14.389Z,-4.90
2022-12-14T05:45:43.055Z,-4.90
2022-12-14T05:48:11.374Z,-4.80
2022-12-14T05:50:39.562Z,-4.80
2022-12-14T05:53:09.593Z,-4.80
2022-12-14T05:55:37.925Z,-4.80
2022-12-14T05:58:06.184Z,-4.70
2022-12-14T06:00:34.807Z,-4.70
2022-12-14T06:03:03.794Z,-4.70
2022-12-14T06:05:31.988Z,-4.60
2022-12-14T06:08:00.668Z,-4.70
2022-12-14T06:10:31.756Z,-4.70
2022-12-14T06:12:59.993Z,-4.60
2022-12-14T06:15:33.780Z,-4.60
2022-12-14T06:18:02.361Z,-4.60
2022-12-14T06:20:31.036Z,-4.60
2022-12-14T06:22:59.255Z,-4.60
2022-12-14T06:25:29.328Z,-4.50
2022-12-14T06:27:57.944Z,-4.40
2022-12-14T06:30:26.062Z,-4.40
2022-12-14T06:32:54.786Z,-4.40
2022-12-14T06:35:23.445Z,-4.40
2022-12-14T06:37:51.633Z,-4.30
2022-12-14T06:40:20.447Z,-4.20
2022-12-14T06:42:50.628Z,-4.20
2022-12-14T06:45:18.729Z,-4.20
2022-12-14T06:47:46.911Z,-4.20
2022-12-14T06:50:16.168Z,-4.20
2022-12-14T06:52:44.517Z,-4.20
2022-12-14T06:55:12.753Z,-4.20
2022-12-14T06:57:42.020Z,-4.10
2022-12-14T07:00:13.313Z,-4.10
2022-12-14T07:02:41.631Z,-4.10
2022-12-14T07:05:10.515Z,-4.00
2022-12-14T07:07:39.156Z,-4.00
2022-12-14T07:10:09.380Z,-3.90
2022-12-14T07:12:38.310Z,-3.90
2022-12-14T07:15:07.736Z,-3.90
2022-12-14T07:17:38.445Z,-3.90
2022-12-14T07:20:08.173Z,-3.90
2022-12-14T07:22:37.004Z,-3.90
2022-12-14T07:25:05.817Z,-3.90
2022-12-14T07:27:34.453Z,-3.90
2022-12-14T07:30:02.583Z,-3.90
2022-12-14T07:32:30.834Z,-3.90
2022-12-14T07:35:01.039Z,-3.90
2022-12-14T07:37:29.272Z,-3.90
2022-12-14T07:39:57.951Z,-3.90
2022-12-14T07:42:26.530Z,-3.90
2022-12-14T07:44:54.688Z,-3.90
2022-12-14T07:47:22.879Z,-3.90
2022-12-14T07:49:51.550Z,-3.90
2022-12-14T07:52:21.135Z,-3.80
2022-12-14T07:54:49.755Z,-3.80
2022-12-14T07:57:18.001Z,-3.80
2022-12-14T07:59:46.125Z,-3.80
2022-12-14T08:02:15.003Z,-3.80
2022-12-14T08:04:43.818Z,-3.80
2022-12-14T08:07:11.928Z,-3.80
2022-12-14T08:09:41.656Z,-3.90
2022-12-14T08:12:10.483Z,-3.90
2022-12-14T08:14:38.754Z,-3.90
2022-12-14T08:17:07.797Z,-3.90
2022-12-14T08:19:36.780Z,-3.90
2022-12-14T08:22:04.953Z,-3.90
2022-12-14T08:24:33.294Z,-3.90
2022-12-14T08:27:03.286Z,-4.00
2022-12-14T08:29:31.629Z,-4.00
2022-12-14T08:31:59.818Z,-4.00
2022-12-14T08:34:28.440Z,-3.90
2022-12-14T08:36:56.572Z,-3.90
2022-12-14T08:39:25.209Z,-3.90
2022-12-14T08:41:53.424Z,-3.90
2022-12-14T08:44:22.952Z,-3.90
2022-12-14T08:46:51.235Z,-3.90
2022-12-14T08:49:19.664Z,-3.90
2022-12-14T08:51:47.911Z,-3.80
2022-12-14T08:54:17.950Z,-3.80
2022-12-14T08:56:46.280Z,-3.80
2022-12-14T08:59:37.008Z,-3.80
2022-12-14T09:02:08.320Z,-3.70
2022-12-14T09:04:36.897Z,-3.70
2022-12-14T09:07:05.044Z,-3.70
2022-12-14T09:09:35.694Z,-3.70
2022-12-14T09:12:06.604Z,-3.70
2022-12-14T09:14:37.142Z,-3.70
2022-12-14T09:17:07.917Z,-3.70
2022-12-14T09:19:36.079Z,-3.60
2022-12-14T09:22:04.297Z,-3.70
2022-12-14T09:24:33.164Z,-3.60
2022-12-14T09:27:01.430Z,-3.70
2022-12-14T09:29:29.940Z,-3.70
2022-12-14T09:31:58.853Z,-3.70
2022-12-14T09:34:29.268Z,-3.70
2022-12-14T09:36:57.481Z,-3.70
2022-12-14T09:39:26.221Z,-3.60
2022-12-14T09:42:04.334Z,-3.60
2022-12-14T09:44:43.629Z,-3.60
2022-12-14T09:47:16.514Z,-3.70
2022-12-14T09:49:50.141Z,-3.70
2022-12-14T09:52:21.530Z,-3.70
2022-12-14T09:54:50.303Z,-3.70
2022-12-14T09:57:27.230Z,-3.70
2022-12-14T09:59:56.149Z,-3.70
2022-12-14T10:02:36.656Z,-3.70
2022-12-14T10:05:32.327Z,-3.70
2022-12-14T10:08:07.378Z,-3.70
2022-12-14T10:10:44.804Z,-3.70
2022-12-14T10:13:26.576Z,-3.70
2022-12-14T10:16:02.344Z,-3.80
2022-12-14T10:19:14.065Z,-3.80
2022-12-14T10:21:49.057Z,-3.80
2022-12-14T10:24:23.397Z,-3.80
2022-12-14T10:26:54.343Z,-3.80
2022-12-14T10:29:30.533Z,-3.70
2022-12-14T10:32:06.230Z,-3.70
2022-12-14T10:34:35.910Z,-3.70
2022-12-14T10:37:23.631Z,-3.70
2022-12-14T10:40:11.595Z,-3.60
2022-12-14T10:42:51.929Z,-3.60
2022-12-14T10:45:45.652Z,-3.60
2022-12-14T10:48:37.256Z,-3.60
2022-12-14T10:51:10.933Z,-3.50
2022-12-14T10:53:46.024Z,-3.50
2022-12-14T10:56:21.297Z,-3.50
2022-12-14T10:59:17.101Z,-3.40
2022-12-14T11:01:48.102Z,-3.50
2022-12-14T11:04:30.241Z,-3.50
2022-12-14T11:07:00.085Z,-3.60
2022-12-14T11:09:30.390Z,-3.60
2022-12-14T11:12:05.883Z,-3.60
2022-12-14T11:14:34.698Z,-3.60
2022-12-14T11:17:03.117Z,-3.50
2022-12-14T11:19:31.804Z,-3.50
2022-12-14T11:22:18.665Z,-3.50
2022-12-14T11:24:51.959Z,-3.50
2022-12-14T11:27:22.421Z,-3.60
2022-12-14T11:29:52.532Z,-3.70
2022-12-14T11:32:24.960Z,-3.80
2022-12-14T11:35:00.675Z,-3.70
2022-12-14T11:37:31.695Z,-3.80
2022-12-14T11:40:04.134Z,-3.70
2022-12-14T11:42:32.841Z,-3.70
2022-12-14T11:45:29.061Z,-3.70
2022-12-14T11:48:22.267Z,-3.70
2022-12-14T11:50:51.708Z,-3.70
2022-12-14T11:53:21.353Z,-3.70
2022-12-14T11:55:57.246Z,-3.70
2022-12-14T11:58:29.189Z,-3.80
2022-12-14T12:01:00.888Z,-3.70
2022-12-14T12:03:34.462Z,-3.70
2022-12-14T12:06:05.959Z,-3.70
2022-12-14T12:08:36.925Z,-3.80
2022-12-14T12:11:16.773Z,-3.70
2022-12-14T12:13:48.319Z,-3.70
2022-12-14T12:16:20.458Z,-3.80
2022-12-14T12:18:52.249Z,-3.90
2022-12-14T12:21:23.889Z,-4.00
2022-12-14T12:23:58.406Z,-4.00
2022-12-14T12:26:31.946Z,-3.90
2022-12-14T12:29:05.523Z,-4.00
2022-12-14T12:31:40.941Z,-4.10
2022-12-14T12:34:13.313Z,-4.10
2022-12-14T12:37:02.781Z,-4.10
2022-12-14T12:39:34.168Z,-4.20
2022-12-14T12:42:19.533Z,-4.20
2022-12-14T12:44:55.988Z,-4.30
2022-12-14T12:47:43.175Z,-4.30
2022-12-14T12:50:16.991Z,-4.30
2022-12-14T12:52:55.494Z,-4.30
2022-12-14T12:55:29.352Z,-4.30
2022-12-14T12:58:03.269Z,-4.40
2022-12-14T13:00:33.151Z,-4.40
2022-12-14T13:03:07.490Z,-4.40
2022-12-14T13:05:46.793Z,-4.40
2022-12-14T13:08:25.073Z,-4.40
2022-12-14T13:11:27.030Z,-4.50
2022-12-14T13:13:52.950Z,-4.50
2022-12-14T13:16:27.461Z,-4.50
2022-12-14T13:19:25.292Z,-4.60
2022-12-14T13:21:55.126Z,-4.60
2022-12-14T13:24:25.980Z,-4.60
2022-12-14T13:27:30.455Z,-4.60
2022-12-14T13:30:22.105Z,-4.60
2022-12-14T13:33:08.198Z,-4.60
2022-12-14T13:35:50.930Z,-4.70
2022-12-14T13:38:56.916Z,-4.80
2022-12-14T13:41:41.371Z,-4.80
2022-12-14T13:44:38.607Z,-4.80
2022-12-14T13:47:17.558Z,-4.90
2022-12-14T13:50:18.590Z,-4.90
2022-12-14T13:52:44.889Z,-4.90
2022-12-14T13:55:33.138Z,-5.00
2022-12-14T13:58:18.242Z,-5.00
2022-12-14T14:01:01.372Z,-5.00
2022-12-14T14:03:54.555Z,-5.00
2022-12-14T14:06:39.773Z,-5.00
2022-12-14T14:09:49.545Z,-5.00
2022-12-14T14:12:45.119Z,-5.10
2022-12-14T14:18:59.949Z,-5.10
2022-12-14T14:22:05.944Z,-5.10
2022-12-14T14:24:30.596Z,-5.10
2022-12-14T14:27:12.570Z,-5.10
2022-12-14T14:29:47.483Z,-5.10
2022-12-14T14:32:40.147Z,-5.10
2022-12-14T14:35:27.177Z,-5.10
2022-12-14T14:37:59.374Z,-5.10
2022-12-14T14:41:06.485Z,-5.10
2022-12-14T14:43:28.799Z,-5.10
2022-12-14T14:45:59.474Z,-5.10
2022-12-14T14:48:34.436Z,-5.20
2022-12-14T14:51:09.349Z,-5.20
2022-12-14T14:53:39.185Z,-5.20
2022-12-14T14:56:35.713Z,-5.20
2022-12-14T14:59:50.671Z,-5.20
2022-12-14T15:02:32.814Z,-5.20
2022-12-14T15:05:40.240Z,-5.20
2022-12-14T15:07:55.803Z,-5.30
2022-12-14T15:10:32.581Z,-5.30
2022-12-14T15:13:03.937Z,-5.40
2022-12-14T15:15:38.431Z,-5.40
2022-12-14T15:18:17.636Z,-5.40
2022-12-14T15:20:55.010Z,-5.50
2022-12-14T15:23:25.690Z,-5.50
2022-12-14T15:26:00.380Z,-5.50
2022-12-14T15:28:29.391Z,-5.50
2022-12-14T15:30:59.158Z,-5.60
2022-12-14T15:33:31.426Z,-5.50
2022-12-14T15:36:05.613Z,-5.60
2022-12-14T15:38:37.667Z,-5.60
2022-12-14T15:41:13.881Z,-5.60
2022-12-14T15:43:46.293Z,-5.50
2022-12-14T15:46:18.670Z,-5.60
2022-12-14T15:48:47.112Z,-5.60
2022-12-14T15:51:20.105Z,-5.60
2022-12-14T15:53:52.283Z,-5.60
2022-12-14T15:56:26.789Z,-5.60
2022-12-14T15:58:56.121Z,-5.50
2022-12-14T16:01:28.687Z,-5.50
2022-12-14T16:03:59.811Z,-5.60
2022-12-14T16:06:31.491Z,-5.60
2022-12-14T16:09:05.917Z,-5.60
2022-12-14T16:11:39.044Z,-5.70
2022-12-14T16:14:19.484Z,-5.70
2022-12-14T16:16:48.718Z,-5.70
2022-12-14T16:19:27.809Z,-5.70
2022-12-14T16:22:13.400Z,-5.80
2022-12-14T16:24:57.880Z,-5.80
2022-12-14T16:27:28.237Z,-5.80
2022-12-14T16:30:17.903Z,-5.80
2022-12-14T16:32:50.049Z,-5.80
2022-12-14T16:35:21.672Z,-5.90
2022-12-14T16:37:52.746Z,-5.80
2022-12-14T16:40:36.019Z,-5.80
2022-12-14T16:43:06.434Z,-5.80
2022-12-14T16:46:10.052Z,-5.80
2022-12-14T16:48:41.076Z,-5.80
2022-12-14T16:51:44.854Z,-5.90
2022-12-14T16:54:26.592Z,-5.90
2022-12-14T16:57:00.880Z,-5.90
2022-12-14T16:59:42.201Z,-5.90
2022-12-14T17:02:40.894Z,-5.90
2022-12-14T17:05:15.913Z,-5.90
2022-12-14T17:07:44.141Z,-5.90
2022-12-14T17:10:16.897Z,-5.90
2022-12-14T17:12:48.097Z,-6.00
2022-12-14T17:15:18.115Z,-6.00
2022-12-14T17:17:49.470Z,-6.10
2022-12-14T17:20:23.500Z,-6.10
2022-12-14T17:22:51.931Z,-6.20
2022-12-14T17:25:21.639Z,-6.20
2022-12-14T17:27:51.539Z,-6.30
2022-12-14T17:30:22.833Z,-6.40
2022-12-14T17:32:53.207Z,-6.50
2022-12-14T17:35:24.090Z,-6.70
2022-12-14T17:37:52.471Z,-6.80
2022-12-14T17:40:21.169Z,-6.90
2022-12-14T17:42:53.045Z,-7.00
2022-12-14T17:45:24.947Z,-7.00
2022-12-14T17:47:53.456Z,-7.00
2022-12-14T17:50:22.925Z,-7.10
2022-12-14T17:52:51.857Z,-7.10
2022-12-14T17:55:22.855Z,-7.20
2022-12-14T17:57:54.983Z,-7.30
2022-12-14T18:00:42.503Z,-7.30
2022-12-14T18:03:12.220Z,-7.20
2022-12-14T18:05:48.037Z,-7.20
2022-12-14T18:08:16.921Z,-7.30
2022-12-14T18:10:45.843Z,-7.40
2022-12-14T18:13:15.696Z,-7.40
2022-12-14T18:15:50.130Z,-7.40
2022-12-14T18:18:19.482Z,-7.50
2022-12-14T18:20:51.699Z,-7.50
2022-12-14T18:23:20.964Z,-7.50
2022-12-14T18:25:52.427Z,-7.50
2022-12-14T18:28:23.029Z,-7.40
2022-12-14T18:30:54.514Z,-7.30
2022-12-14T18:33:27.664Z,-7.20
2022-12-14T18:35:58.062Z,-7.00
2022-12-14T18:38:27.239Z,-6.90
2022-12-14T18:41:00.591Z,-6.80
2022-12-14T18:43:31.685Z,-6.70
2022-12-14T18:46:01.900Z,-6.70
2022-12-14T18:48:30.587Z,-6.60
2022-12-14T18:50:58.985Z,-6.60
2022-12-14T18:53:28.950Z,-6.50
2022-12-14T18:55:58.517Z,-6.40
2022-12-14T18:58:29.795Z,-6.40
2022-12-14T19:01:00.318Z,-6.40
2022-12-14T19:03:32.547Z,-6.30
2022-12-14T19:06:34.885Z,-6.30
2022-12-14T19:08:56.166Z,-6.20
2022-12-14T19:11:31.673Z,-6.20
2022-12-14T19:14:04.294Z,-6.10
2022-12-14T19:16:33.886Z,-6.10
2022-12-14T19:19:02.946Z,-6.00
2022-12-14T19:21:32.404Z,-5.90
2022-12-14T19:24:02.366Z,-5.90
2022-12-14T19:26:32.525Z,-5.80
2022-12-14T19:29:03.340Z,-5.80
2022-12-14T19:31:32.545Z,-5.80
2022-12-14T19:34:01.246Z,-5.80
2022-12-14T19:36:30.301Z,-5.70
2022-12-14T19:39:00.617Z,-5.70
2022-12-14T19:41:30.118Z,-5.70
2022-12-14T19:43:59.445Z,-5.70
2022-12-14T19:46:29.827Z,-5.70
2022-12-14T19:49:00.665Z,-5.80
2022-12-14T19:51:29.847Z,-5.80
2022-12-14T19:53:58.747Z,-5.70
2022-12-14T19:56:27.882Z,-5.70
2022-12-14T19:58:59.529Z,-5.80
2022-12-14T20:01:33.450Z,-5.80
2022-12-14T20:04:03.564Z,-5.80
2022-12-14T20:06:33.667Z,-5.80
2022-12-14T20:09:04.617Z,-5.90
2022-12-14T20:11:34.178Z,-5.80
2022-12-14T20:14:03.545Z,-5.90
2022-12-14T20:16:34.036Z,-5.90
2022-12-14T20:19:02.335Z,-5.90
2022-12-14T20:21:31.572Z,-5.90
2022-12-14T20:24:01.333Z,-5.90
2022-12-14T20:26:31.380Z,-5.90
2022-12-14T20:29:03.521Z,-5.90
2022-12-14T20:31:34.619Z,-5.90
2022-12-14T20:34:05.926Z,-5.90
2022-12-14T20:36:34.464Z,-5.90
2022-12-14T20:39:03.861Z,-5.90
2022-12-14T20:41:33.674Z,-6.00
2022-12-14T20:44:03.657Z,-6.00
2022-12-14T20:46:34.725Z,-6.00
2022-12-14T20:49:05.386Z,-6.00
2022-12-14T20:51:35.452Z,-6.00
2022-12-14T20:54:05.160Z,-6.00
2022-12-14T20:56:34.072Z,-6.00
2022-12-14T20:59:04.152Z,-6.00
2022-12-14T21:01:34.111Z,-6.00
2022-12-14T21:04:03.784Z,-6.00
2022-12-14T21:06:33.157Z,-6.00
2022-12-14T21:09:09.459Z,-6.00
2022-12-14T21:11:58.105Z,-6.00
2022-12-14T21:14:28.515Z,-6.10
2022-12-14T21:16:58.647Z,-6.00
2022-12-14T21:19:27.395Z,-6.00
2022-12-14T21:21:55.793Z,-6.00
2022-12-14T21:25:00.544Z,-6.00
2022-12-14T21:27:17.916Z,-6.00
2022-12-14T21:29:46.565Z,-6.00
2022-12-14T21:32:16.869Z,-6.00
2022-12-14T21:34:46.085Z,-6.00
2022-12-14T21:37:15.047Z,-6.00
2022-12-14T21:39:47.570Z,-6.00
2022-12-14T21:42:20.848Z,-6.00
2022-12-14T21:44:51.188Z,-6.10
2022-12-14T21:47:23.117Z,-6.10
2022-12-14T21:49:51.735Z,-6.00
2022-12-14T21:52:22.072Z,-6.10
2022-12-14T21:54:51.395Z,-6.00
2022-12-14T21:57:49.879Z,-6.10
2022-12-14T22:00:20.242Z,-6.00
2022-12-14T22:02:49.995Z,-6.00
2022-12-14T22:05:18.395Z,-6.00
2022-12-14T22:07:46.933Z,-6.00
2022-12-14T22:10:19.898Z,-6.00
2022-12-14T22:12:51.161Z,-6.00
2022-12-14T22:15:19.512Z,-6.00
2022-12-14T22:17:50.025Z,-6.00
2022-12-14T22:20:18.512Z,-6.00
2022-12-14T22:22:47.189Z,-6.00
2022-12-14T22:25:15.920Z,-6.00
2022-12-14T22:27:49.686Z,-6.00
2022-12-14T22:30:18.894Z,-6.00
2022-12-14T22:32:47.932Z,-6.00
2022-12-14T22:35:18.177Z,-6.00
2022-12-14T22:37:46.665Z,-6.00
2022-12-14T22:40:14.882Z,-6.00
2022-12-14T22:42:43.043Z,-6.10
2022-12-14T22:45:12.058Z,-6.10
2022-12-14T22:47:40.383Z,-6.10
2022-12-14T22:50:09.549Z,-6.20
2022-12-14T22:52:39.393Z,-6.20
2022-12-14T22:55:08.516Z,-6.20
2022-12-14T22:57:41.604Z,-6.20
2022-12-14T23:00:15.926Z,-6.20
2022-12-14T23:02:48.314Z,-6.20
2022-12-14T23:05:17.096Z,-6.30
2022-12-14T23:07:47.517Z,-6.30
2022-12-14T23:10:33.499Z,-6.20
2022-12-14T23:13:19.303Z,-6.20
2022-12-14T23:16:05.056Z,-6.10
2022-12-14T23:18:50.575Z,-6.10
2022-12-14T23:21:36.341Z,-6.10
2022-12-14T23:24:24.579Z,-6.10
2022-12-14T23:27:11.419Z,-6.00
2022-12-14T23:29:57.629Z,-6.00
2022-12-14T23:32:43.690Z,-5.90
2022-12-14T23:35:29.304Z,-5.80
2022-12-14T23:38:14.967Z,-5.80
2022-12-14T23:41:01.640Z,-5.70
2022-12-14T23:43:47.525Z,-5.80
2022-12-14T23:46:33.372Z,-5.80
2022-12-14T23:49:19.110Z,-5.90
2022-12-14T23:52:04.852Z,-6.00
2022-12-14T23:54:50.219Z,-6.10
2022-12-14T23:57:37.119Z,-6.20
